sensor_id;sensor_type;location;lat;lon;timestamp;temperature;humidity
42715;DHT22;28351;51.480;5.706;2023-06-22T00:01:58;19.20;99.90
42715;DHT22;28351;51.480;5.706;2023-06-22T00:04:23;19.10;99.90
42715;DHT22;28351;51.480;5.706;2023-06-22T00:06:49;19.10;99.90
42715;DHT22;28351;51.480;5.706;2023-06-22T00:09:15;19.10;99.90
42715;DHT22;28351;51.480;5.706;2023-06-22T00:11:43;19.10;99.90
42715;DHT22;28351;51.480;5.706;2023-06-22T00:14:09;19.00;99.90
42715;DHT22;28351;51.480;5.706;2023-06-22T00:16:34;19.00;99.90
42715;DHT22;28351;51.480;5.706;2023-06-22T00:19:00;19.00;99.90
42715;DHT22;28351;51.480;5.706;2023-06-22T00:21:27;19.00;99.90
42715;DHT22;28351;51.480;5.706;2023-06-22T00:23:53;19.00;99.90
42715;DHT22;28351;51.480;5.706;2023-06-22T00:26:19;18.90;99.90
42715;DHT22;28351;51.480;5.706;2023-06-22T00:28:44;18.90;99.90
42715;DHT22;28351;51.480;5.706;2023-06-22T00:31:10;18.90;99.90
42715;DHT22;28351;51.480;5.706;2023-06-22T00:33:36;18.80;99.90
42715;DHT22;28351;51.480;5.706;2023-06-22T00:36:01;18.80;99.90
42715;DHT22;28351;51.480;5.706;2023-06-22T00:38:31;18.80;99.90
42715;DHT22;28351;51.480;5.706;2023-06-22T00:40:56;18.80;99.90
42715;DHT22;28351;51.480;5.706;2023-06-22T00:43:22;18.90;99.90
42715;DHT22;28351;51.480;5.706;2023-06-22T00:45:48;18.80;99.90
42715;DHT22;28351;51.480;5.706;2023-06-22T00:48:14;18.70;99.90
42715;DHT22;28351;51.480;5.706;2023-06-22T00:50:40;18.60;99.90
42715;DHT22;28351;51.480;5.706;2023-06-22T00:53:07;18.60;99.90
42715;DHT22;28351;51.480;5.706;2023-06-22T00:55:37;18.60;99.90
42715;DHT22;28351;51.480;5.706;2023-06-22T00:58:07;18.60;99.90
42715;DHT22;28351;51.480;5.706;2023-06-22T01:00:36;18.50;99.90
42715;DHT22;28351;51.480;5.706;2023-06-22T01:03:02;18.50;99.90
42715;DHT22;28351;51.480;5.706;2023-06-22T01:05:28;18.40;99.90
42715;DHT22;28351;51.480;5.706;2023-06-22T01:08:29;18.30;99.90
42715;DHT22;28351;51.480;5.706;2023-06-22T01:17:01;18.40;99.90
42715;DHT22;28351;51.480;5.706;2023-06-22T01:19:41;18.40;99.90
42715;DHT22;28351;51.480;5.706;2023-06-22T01:22:10;18.40;99.90
42715;DHT22;28351;51.480;5.706;2023-06-22T01:27:33;18.30;99.90
42715;DHT22;28351;51.480;5.706;2023-06-22T01:30:02;18.30;99.90
42715;DHT22;28351;51.480;5.706;2023-06-22T01:32:32;18.30;99.90
42715;DHT22;28351;51.480;5.706;2023-06-22T01:35:00;18.30;99.90
42715;DHT22;28351;51.480;5.706;2023-06-22T01:37:27;18.30;99.90
42715;DHT22;28351;51.480;5.706;2023-06-22T01:39:55;18.40;99.90
42715;DHT22;28351;51.480;5.706;2023-06-22T01:42:22;18.50;99.90
42715;DHT22;28351;51.480;5.706;2023-06-22T01:44:49;18.40;99.90
42715;DHT22;28351;51.480;5.706;2023-06-22T01:47:18;18.40;99.90
42715;DHT22;28351;51.480;5.706;2023-06-22T01:49:43;18.40;99.90
42715;DHT22;28351;51.480;5.706;2023-06-22T01:52:10;18.40;99.90
42715;DHT22;28351;51.480;5.706;2023-06-22T01:54:37;18.40;99.90
42715;DHT22;28351;51.480;5.706;2023-06-22T01:57:03;18.40;99.90
42715;DHT22;28351;51.480;5.706;2023-06-22T01:59:34;18.30;99.90
42715;DHT22;28351;51.480;5.706;2023-06-22T02:02:09;18.30;99.90
42715;DHT22;28351;51.480;5.706;2023-06-22T02:04:48;18.30;99.90
42715;DHT22;28351;51.480;5.706;2023-06-22T02:07:18;18.30;99.90
42715;DHT22;28351;51.480;5.706;2023-06-22T02:09:45;18.30;99.90
42715;DHT22;28351;51.480;5.706;2023-06-22T02:12:13;18.30;99.90
42715;DHT22;28351;51.480;5.706;2023-06-22T02:14:42;18.30;99.90
42715;DHT22;28351;51.480;5.706;2023-06-22T02:17:09;18.30;99.90
42715;DHT22;28351;51.480;5.706;2023-06-22T02:19:38;18.20;99.90
42715;DHT22;28351;51.480;5.706;2023-06-22T02:22:04;18.20;99.90
42715;DHT22;28351;51.480;5.706;2023-06-22T02:24:32;18.10;99.90
42715;DHT22;28351;51.480;5.706;2023-06-22T02:27:00;18.20;99.90
42715;DHT22;28351;51.480;5.706;2023-06-22T02:29:26;18.20;99.90
42715;DHT22;28351;51.480;5.706;2023-06-22T02:31:53;18.20;99.90
42715;DHT22;28351;51.480;5.706;2023-06-22T02:34:18;18.20;99.90
42715;DHT22;28351;51.480;5.706;2023-06-22T02:36:46;18.20;99.90
42715;DHT22;28351;51.480;5.706;2023-06-22T02:41:46;18.20;99.90
42715;DHT22;28351;51.480;5.706;2023-06-22T02:44:12;18.10;99.90
42715;DHT22;28351;51.480;5.706;2023-06-22T02:46:47;18.20;99.90
42715;DHT22;28351;51.480;5.706;2023-06-22T02:49:13;18.10;99.90
42715;DHT22;28351;51.480;5.706;2023-06-22T02:51:41;18.10;99.90
42715;DHT22;28351;51.480;5.706;2023-06-22T02:54:07;18.00;99.90
42715;DHT22;28351;51.480;5.706;2023-06-22T02:56:33;18.00;99.90
42715;DHT22;28351;51.480;5.706;2023-06-22T02:59:16;18.00;99.90
42715;DHT22;28351;51.480;5.706;2023-06-22T03:01:57;18.00;99.90
42715;DHT22;28351;51.480;5.706;2023-06-22T03:04:23;18.00;99.90
42715;DHT22;28351;51.480;5.706;2023-06-22T03:06:48;17.90;99.90
42715;DHT22;28351;51.480;5.706;2023-06-22T03:09:16;18.00;99.90
42715;DHT22;28351;51.480;5.706;2023-06-22T03:11:42;18.00;99.90
42715;DHT22;28351;51.480;5.706;2023-06-22T03:14:08;17.90;99.90
42715;DHT22;28351;51.480;5.706;2023-06-22T03:16:34;17.90;99.90
42715;DHT22;28351;51.480;5.706;2023-06-22T03:18:59;17.90;99.90
42715;DHT22;28351;51.480;5.706;2023-06-22T03:21:28;17.90;99.90
42715;DHT22;28351;51.480;5.706;2023-06-22T03:23:54;17.90;99.90
42715;DHT22;28351;51.480;5.706;2023-06-22T03:26:23;18.00;99.90
42715;DHT22;28351;51.480;5.706;2023-06-22T03:28:52;18.10;99.90
42715;DHT22;28351;51.480;5.706;2023-06-22T03:31:18;18.10;99.90
42715;DHT22;28351;51.480;5.706;2023-06-22T03:33:48;18.00;99.90
42715;DHT22;28351;51.480;5.706;2023-06-22T03:36:18;18.00;99.90
42715;DHT22;28351;51.480;5.706;2023-06-22T03:38:48;18.00;99.90
42715;DHT22;28351;51.480;5.706;2023-06-22T03:41:14;18.00;99.90
42715;DHT22;28351;51.480;5.706;2023-06-22T03:43:40;17.90;99.90
42715;DHT22;28351;51.480;5.706;2023-06-22T03:46:12;17.90;99.90
42715;DHT22;28351;51.480;5.706;2023-06-22T03:48:38;17.90;99.90
42715;DHT22;28351;51.480;5.706;2023-06-22T03:51:04;18.00;99.90
42715;DHT22;28351;51.480;5.706;2023-06-22T03:53:29;18.00;99.90
42715;DHT22;28351;51.480;5.706;2023-06-22T03:55:55;18.00;99.90
42715;DHT22;28351;51.480;5.706;2023-06-22T03:58:21;18.00;99.90
42715;DHT22;28351;51.480;5.706;2023-06-22T04:00:52;18.00;99.90
42715;DHT22;28351;51.480;5.706;2023-06-22T04:03:18;18.10;99.90
42715;DHT22;28351;51.480;5.706;2023-06-22T04:05:44;18.10;99.90
42715;DHT22;28351;51.480;5.706;2023-06-22T04:08:11;18.20;99.90
42715;DHT22;28351;51.480;5.706;2023-06-22T04:10:37;18.20;99.90
42715;DHT22;28351;51.480;5.706;2023-06-22T04:13:09;18.20;99.90
42715;DHT22;28351;51.480;5.706;2023-06-22T04:15:34;18.20;99.90
42715;DHT22;28351;51.480;5.706;2023-06-22T04:18:00;18.30;99.90
42715;DHT22;28351;51.480;5.706;2023-06-22T04:20:26;18.30;99.90
42715;DHT22;28351;51.480;5.706;2023-06-22T04:22:53;18.40;99.90
42715;DHT22;28351;51.480;5.706;2023-06-22T04:25:19;18.40;99.90
42715;DHT22;28351;51.480;5.706;2023-06-22T04:27:45;18.50;99.90
42715;DHT22;28351;51.480;5.706;2023-06-22T04:30:11;18.50;99.90
42715;DHT22;28351;51.480;5.706;2023-06-22T04:32:37;18.60;99.90
42715;DHT22;28351;51.480;5.706;2023-06-22T04:35:03;18.70;99.90
42715;DHT22;28351;51.480;5.706;2023-06-22T04:37:33;18.70;99.90
42715;DHT22;28351;51.480;5.706;2023-06-22T04:39:58;18.90;99.90
42715;DHT22;28351;51.480;5.706;2023-06-22T04:42:26;19.00;99.90
42715;DHT22;28351;51.480;5.706;2023-06-22T04:44:52;19.00;99.90
42715;DHT22;28351;51.480;5.706;2023-06-22T04:47:17;19.10;99.90
42715;DHT22;28351;51.480;5.706;2023-06-22T04:49:43;19.10;99.90
42715;DHT22;28351;51.480;5.706;2023-06-22T04:52:12;19.20;99.90
42715;DHT22;28351;51.480;5.706;2023-06-22T04:54:39;19.30;99.90
42715;DHT22;28351;51.480;5.706;2023-06-22T04:57:07;19.30;99.90
42715;DHT22;28351;51.480;5.706;2023-06-22T04:59:39;19.40;99.90
42715;DHT22;28351;51.480;5.706;2023-06-22T05:02:15;19.40;99.90
42715;DHT22;28351;51.480;5.706;2023-06-22T05:04:41;19.40;99.90
42715;DHT22;28351;51.480;5.706;2023-06-22T05:07:06;19.50;99.90
42715;DHT22;28351;51.480;5.706;2023-06-22T05:09:34;19.50;99.90
42715;DHT22;28351;51.480;5.706;2023-06-22T05:12:01;19.60;99.90
42715;DHT22;28351;51.480;5.706;2023-06-22T05:14:29;19.70;99.90
42715;DHT22;28351;51.480;5.706;2023-06-22T05:16:55;19.80;99.90
42715;DHT22;28351;51.480;5.706;2023-06-22T05:19:27;19.90;99.90
42715;DHT22;28351;51.480;5.706;2023-06-22T05:21:58;20.00;99.90
42715;DHT22;28351;51.480;5.706;2023-06-22T05:24:24;20.10;99.90
42715;DHT22;28351;51.480;5.706;2023-06-22T05:26:49;20.10;99.90
42715;DHT22;28351;51.480;5.706;2023-06-22T05:29:15;20.10;99.90
42715;DHT22;28351;51.480;5.706;2023-06-22T05:31:41;20.10;99.90
42715;DHT22;28351;51.480;5.706;2023-06-22T05:34:07;20.10;99.90
42715;DHT22;28351;51.480;5.706;2023-06-22T05:36:35;20.00;99.90
42715;DHT22;28351;51.480;5.706;2023-06-22T05:39:11;20.10;99.90
42715;DHT22;28351;51.480;5.706;2023-06-22T05:41:40;20.30;99.90
42715;DHT22;28351;51.480;5.706;2023-06-22T05:44:06;20.30;99.90
42715;DHT22;28351;51.480;5.706;2023-06-22T05:46:32;20.40;99.90
42715;DHT22;28351;51.480;5.706;2023-06-22T05:48:57;20.50;99.90
42715;DHT22;28351;51.480;5.706;2023-06-22T05:51:23;20.50;99.90
42715;DHT22;28351;51.480;5.706;2023-06-22T05:53:49;20.60;99.90
42715;DHT22;28351;51.480;5.706;2023-06-22T05:56:18;20.60;99.90
42715;DHT22;28351;51.480;5.706;2023-06-22T05:58:45;20.70;99.90
42715;DHT22;28351;51.480;5.706;2023-06-22T06:01:10;20.80;99.90
42715;DHT22;28351;51.480;5.706;2023-06-22T06:03:36;20.80;99.90
42715;DHT22;28351;51.480;5.706;2023-06-22T06:06:07;20.90;99.90
42715;DHT22;28351;51.480;5.706;2023-06-22T06:08:34;20.90;99.90
42715;DHT22;28351;51.480;5.706;2023-06-22T06:11:00;20.90;99.90
42715;DHT22;28351;51.480;5.706;2023-06-22T06:13:25;20.90;99.90
42715;DHT22;28351;51.480;5.706;2023-06-22T06:15:51;21.10;99.90
42715;DHT22;28351;51.480;5.706;2023-06-22T06:18:17;21.10;99.90
42715;DHT22;28351;51.480;5.706;2023-06-22T06:20:42;21.20;99.90
42715;DHT22;28351;51.480;5.706;2023-06-22T06:23:20;21.20;99.90
42715;DHT22;28351;51.480;5.706;2023-06-22T06:25:46;21.30;99.90
42715;DHT22;28351;51.480;5.706;2023-06-22T06:28:11;21.40;99.90
42715;DHT22;28351;51.480;5.706;2023-06-22T06:30:37;21.40;99.90
42715;DHT22;28351;51.480;5.706;2023-06-22T06:33:03;21.40;99.90
42715;DHT22;28351;51.480;5.706;2023-06-22T06:35:34;21.40;99.90
42715;DHT22;28351;51.480;5.706;2023-06-22T06:38:00;21.50;99.90
42715;DHT22;28351;51.480;5.706;2023-06-22T06:40:25;21.50;99.90
42715;DHT22;28351;51.480;5.706;2023-06-22T06:42:51;21.50;99.90
42715;DHT22;28351;51.480;5.706;2023-06-22T06:45:18;21.50;99.90
42715;DHT22;28351;51.480;5.706;2023-06-22T06:47:44;21.50;99.90
42715;DHT22;28351;51.480;5.706;2023-06-22T06:50:12;21.50;99.90
42715;DHT22;28351;51.480;5.706;2023-06-22T06:52:38;21.50;99.90
42715;DHT22;28351;51.480;5.706;2023-06-22T06:55:04;21.40;99.90
42715;DHT22;28351;51.480;5.706;2023-06-22T06:57:35;21.40;99.90
42715;DHT22;28351;51.480;5.706;2023-06-22T07:00:04;21.40;99.90
42715;DHT22;28351;51.480;5.706;2023-06-22T07:02:35;21.40;99.90
42715;DHT22;28351;51.480;5.706;2023-06-22T07:05:01;21.40;99.90
42715;DHT22;28351;51.480;5.706;2023-06-22T07:07:29;21.40;99.90
42715;DHT22;28351;51.480;5.706;2023-06-22T07:09:54;21.50;99.90
42715;DHT22;28351;51.480;5.706;2023-06-22T07:12:20;21.60;99.90
42715;DHT22;28351;51.480;5.706;2023-06-22T07:14:46;21.70;99.90
42715;DHT22;28351;51.480;5.706;2023-06-22T07:17:12;21.90;99.90
42715;DHT22;28351;51.480;5.706;2023-06-22T07:19:37;22.00;99.90
42715;DHT22;28351;51.480;5.706;2023-06-22T07:22:04;22.20;99.90
42715;DHT22;28351;51.480;5.706;2023-06-22T07:24:30;22.30;99.90
42715;DHT22;28351;51.480;5.706;2023-06-22T07:26:55;22.40;99.90
42715;DHT22;28351;51.480;5.706;2023-06-22T07:29:24;22.50;99.90
42715;DHT22;28351;51.480;5.706;2023-06-22T07:31:50;22.50;99.90
42715;DHT22;28351;51.480;5.706;2023-06-22T07:34:22;22.40;99.90
42715;DHT22;28351;51.480;5.706;2023-06-22T07:36:48;22.40;99.90
42715;DHT22;28351;51.480;5.706;2023-06-22T07:39:13;22.30;99.90
42715;DHT22;28351;51.480;5.706;2023-06-22T07:41:42;22.40;99.90
42715;DHT22;28351;51.480;5.706;2023-06-22T07:44:08;22.50;99.90
42715;DHT22;28351;51.480;5.706;2023-06-22T07:46:33;22.50;99.90
42715;DHT22;28351;51.480;5.706;2023-06-22T07:48:59;22.60;99.90
42715;DHT22;28351;51.480;5.706;2023-06-22T07:51:26;22.60;99.90
42715;DHT22;28351;51.480;5.706;2023-06-22T07:53:52;22.50;99.90
42715;DHT22;28351;51.480;5.706;2023-06-22T07:56:17;22.60;99.90
42715;DHT22;28351;51.480;5.706;2023-06-22T07:58:46;22.70;99.90
42715;DHT22;28351;51.480;5.706;2023-06-22T08:01:12;22.80;99.90
42715;DHT22;28351;51.480;5.706;2023-06-22T08:03:41;22.80;99.90
42715;DHT22;28351;51.480;5.706;2023-06-22T08:06:07;22.70;99.90
42715;DHT22;28351;51.480;5.706;2023-06-22T08:08:35;22.70;99.90
42715;DHT22;28351;51.480;5.706;2023-06-22T08:11:01;22.70;99.90
42715;DHT22;28351;51.480;5.706;2023-06-22T08:13:26;22.70;99.90
42715;DHT22;28351;51.480;5.706;2023-06-22T08:16:01;22.90;99.90
42715;DHT22;28351;51.480;5.706;2023-06-22T08:18:26;23.10;99.90
42715;DHT22;28351;51.480;5.706;2023-06-22T08:20:52;23.20;99.90
42715;DHT22;28351;51.480;5.706;2023-06-22T08:23:18;23.20;99.90
42715;DHT22;28351;51.480;5.706;2023-06-22T08:25:44;23.30;99.90
42715;DHT22;28351;51.480;5.706;2023-06-22T08:28:09;23.40;99.90
42715;DHT22;28351;51.480;5.706;2023-06-22T08:30:35;23.50;99.90
42715;DHT22;28351;51.480;5.706;2023-06-22T08:33:01;23.50;99.90
42715;DHT22;28351;51.480;5.706;2023-06-22T08:35:26;23.50;99.90
42715;DHT22;28351;51.480;5.706;2023-06-22T08:37:52;23.50;99.90
42715;DHT22;28351;51.480;5.706;2023-06-22T08:40:22;23.50;99.90
42715;DHT22;28351;51.480;5.706;2023-06-22T08:42:48;23.60;99.90
42715;DHT22;28351;51.480;5.706;2023-06-22T08:45:17;23.60;99.90
42715;DHT22;28351;51.480;5.706;2023-06-22T08:47:42;23.70;99.90
42715;DHT22;28351;51.480;5.706;2023-06-22T08:50:12;23.60;99.90
42715;DHT22;28351;51.480;5.706;2023-06-22T08:52:38;23.70;99.90
42715;DHT22;28351;51.480;5.706;2023-06-22T08:55:07;23.70;99.90
42715;DHT22;28351;51.480;5.706;2023-06-22T08:57:33;23.60;99.90
42715;DHT22;28351;51.480;5.706;2023-06-22T09:00:00;23.70;99.90
42715;DHT22;28351;51.480;5.706;2023-06-22T09:02:27;23.70;99.90
42715;DHT22;28351;51.480;5.706;2023-06-22T09:04:58;23.60;99.90
42715;DHT22;28351;51.480;5.706;2023-06-22T09:07:24;23.50;99.90
42715;DHT22;28351;51.480;5.706;2023-06-22T09:09:51;23.50;99.90
42715;DHT22;28351;51.480;5.706;2023-06-22T09:12:18;23.60;99.90
42715;DHT22;28351;51.480;5.706;2023-06-22T09:14:48;23.60;99.90
42715;DHT22;28351;51.480;5.706;2023-06-22T09:17:14;23.60;99.90
42715;DHT22;28351;51.480;5.706;2023-06-22T09:19:39;23.60;99.90
42715;DHT22;28351;51.480;5.706;2023-06-22T09:22:05;23.70;99.90
42715;DHT22;28351;51.480;5.706;2023-06-22T09:24:33;23.70;99.90
42715;DHT22;28351;51.480;5.706;2023-06-22T09:26:59;23.70;99.90
42715;DHT22;28351;51.480;5.706;2023-06-22T09:29:25;23.70;99.90
42715;DHT22;28351;51.480;5.706;2023-06-22T09:31:50;23.70;99.90
42715;DHT22;28351;51.480;5.706;2023-06-22T09:34:19;23.80;99.90
42715;DHT22;28351;51.480;5.706;2023-06-22T09:36:46;23.70;99.90
42715;DHT22;28351;51.480;5.706;2023-06-22T09:39:13;23.70;99.90
42715;DHT22;28351;51.480;5.706;2023-06-22T09:41:41;23.70;99.90
42715;DHT22;28351;51.480;5.706;2023-06-22T09:44:07;23.80;99.90
42715;DHT22;28351;51.480;5.706;2023-06-22T09:46:39;23.90;99.90
42715;DHT22;28351;51.480;5.706;2023-06-22T09:49:05;24.20;99.90
42715;DHT22;28351;51.480;5.706;2023-06-22T09:51:31;24.40;99.90
42715;DHT22;28351;51.480;5.706;2023-06-22T09:53:56;24.50;99.90
42715;DHT22;28351;51.480;5.706;2023-06-22T09:56:23;24.60;99.90
42715;DHT22;28351;51.480;5.706;2023-06-22T09:58:49;24.60;99.90
42715;DHT22;28351;51.480;5.706;2023-06-22T10:01:18;24.60;99.90
42715;DHT22;28351;51.480;5.706;2023-06-22T10:03:44;24.50;99.90
42715;DHT22;28351;51.480;5.706;2023-06-22T10:06:09;24.60;99.90
42715;DHT22;28351;51.480;5.706;2023-06-22T10:08:35;24.70;99.90
42715;DHT22;28351;51.480;5.706;2023-06-22T10:11:01;24.80;99.90
42715;DHT22;28351;51.480;5.706;2023-06-22T10:13:27;24.70;99.90
42715;DHT22;28351;51.480;5.706;2023-06-22T10:15:52;24.80;99.90
42715;DHT22;28351;51.480;5.706;2023-06-22T10:18:19;24.80;99.90
42715;DHT22;28351;51.480;5.706;2023-06-22T10:20:47;24.60;99.90
42715;DHT22;28351;51.480;5.706;2023-06-22T10:23:13;24.50;99.90
42715;DHT22;28351;51.480;5.706;2023-06-22T10:25:39;24.40;99.90
42715;DHT22;28351;51.480;5.706;2023-06-22T10:28:04;24.40;99.90
42715;DHT22;28351;51.480;5.706;2023-06-22T10:30:31;24.30;99.90
42715;DHT22;28351;51.480;5.706;2023-06-22T10:32:57;24.20;99.90
42715;DHT22;28351;51.480;5.706;2023-06-22T10:35:22;24.00;99.90
42715;DHT22;28351;51.480;5.706;2023-06-22T10:37:50;23.90;99.90
42715;DHT22;28351;51.480;5.706;2023-06-22T10:40:17;23.80;99.90
42715;DHT22;28351;51.480;5.706;2023-06-22T10:42:44;23.60;99.90
42715;DHT22;28351;51.480;5.706;2023-06-22T10:45:10;23.40;99.90
42715;DHT22;28351;51.480;5.706;2023-06-22T10:47:36;22.80;99.90
42715;DHT22;28351;51.480;5.706;2023-06-22T10:50:02;22.10;99.90
42715;DHT22;28351;51.480;5.706;2023-06-22T10:52:28;21.80;99.90
42715;DHT22;28351;51.480;5.706;2023-06-22T10:54:54;21.60;99.90
42715;DHT22;28351;51.480;5.706;2023-06-22T10:57:19;21.20;99.90
42715;DHT22;28351;51.480;5.706;2023-06-22T10:59:45;21.00;99.90
42715;DHT22;28351;51.480;5.706;2023-06-22T11:02:11;20.80;99.90
42715;DHT22;28351;51.480;5.706;2023-06-22T11:04:38;20.70;99.90
42715;DHT22;28351;51.480;5.706;2023-06-22T11:07:04;20.70;99.90
42715;DHT22;28351;51.480;5.706;2023-06-22T11:09:29;20.60;99.90
42715;DHT22;28351;51.480;5.706;2023-06-22T11:11:55;20.50;99.90
42715;DHT22;28351;51.480;5.706;2023-06-22T11:14:25;20.40;99.90
42715;DHT22;28351;51.480;5.706;2023-06-22T11:16:50;20.40;99.90
42715;DHT22;28351;51.480;5.706;2023-06-22T11:19:16;20.30;99.90
42715;DHT22;28351;51.480;5.706;2023-06-22T11:21:41;20.20;99.90
42715;DHT22;28351;51.480;5.706;2023-06-22T11:24:07;20.00;99.90
42715;DHT22;28351;51.480;5.706;2023-06-22T11:26:33;19.90;99.90
42715;DHT22;28351;51.480;5.706;2023-06-22T11:29:04;19.80;99.90
42715;DHT22;28351;51.480;5.706;2023-06-22T11:31:31;19.70;99.90
42715;DHT22;28351;51.480;5.706;2023-06-22T11:34:05;19.70;99.90
42715;DHT22;28351;51.480;5.706;2023-06-22T11:36:30;19.60;99.90
42715;DHT22;28351;51.480;5.706;2023-06-22T11:38:58;19.60;99.90
42715;DHT22;28351;51.480;5.706;2023-06-22T11:41:24;19.50;99.90
42715;DHT22;28351;51.480;5.706;2023-06-22T11:43:51;19.50;99.90
42715;DHT22;28351;51.480;5.706;2023-06-22T11:46:18;19.40;99.90
42715;DHT22;28351;51.480;5.706;2023-06-22T11:48:47;19.30;99.90
42715;DHT22;28351;51.480;5.706;2023-06-22T11:51:16;19.40;99.90
42715;DHT22;28351;51.480;5.706;2023-06-22T11:53:42;19.30;99.90
42715;DHT22;28351;51.480;5.706;2023-06-22T11:56:09;19.40;99.90
42715;DHT22;28351;51.480;5.706;2023-06-22T11:58:37;19.30;99.90
42715;DHT22;28351;51.480;5.706;2023-06-22T12:01:03;19.40;99.90
42715;DHT22;28351;51.480;5.706;2023-06-22T12:03:29;19.40;99.90
42715;DHT22;28351;51.480;5.706;2023-06-22T12:05:55;19.40;99.90
42715;DHT22;28351;51.480;5.706;2023-06-22T12:08:23;19.20;99.90
42715;DHT22;28351;51.480;5.706;2023-06-22T12:10:50;19.20;99.90
42715;DHT22;28351;51.480;5.706;2023-06-22T12:13:23;19.30;99.90
42715;DHT22;28351;51.480;5.706;2023-06-22T12:15:49;19.40;99.90
42715;DHT22;28351;51.480;5.706;2023-06-22T12:18:17;19.40;99.90
42715;DHT22;28351;51.480;5.706;2023-06-22T12:20:46;19.40;99.90
42715;DHT22;28351;51.480;5.706;2023-06-22T12:23:11;19.50;99.90
42715;DHT22;28351;51.480;5.706;2023-06-22T12:25:37;19.50;99.90
42715;DHT22;28351;51.480;5.706;2023-06-22T12:28:03;19.70;99.90
42715;DHT22;28351;51.480;5.706;2023-06-22T12:30:30;19.80;99.90
42715;DHT22;28351;51.480;5.706;2023-06-22T12:32:56;19.70;99.90
42715;DHT22;28351;51.480;5.706;2023-06-22T12:35:21;19.80;99.90
42715;DHT22;28351;51.480;5.706;2023-06-22T12:37:47;19.80;99.90
42715;DHT22;28351;51.480;5.706;2023-06-22T12:40:12;19.90;99.90
42715;DHT22;28351;51.480;5.706;2023-06-22T12:42:39;19.80;99.90
42715;DHT22;28351;51.480;5.706;2023-06-22T12:45:05;19.80;99.90
42715;DHT22;28351;51.480;5.706;2023-06-22T12:47:31;20.00;99.90
42715;DHT22;28351;51.480;5.706;2023-06-22T12:49:57;20.10;99.90
42715;DHT22;28351;51.480;5.706;2023-06-22T12:52:25;20.20;99.90
42715;DHT22;28351;51.480;5.706;2023-06-22T12:54:50;20.30;99.90
42715;DHT22;28351;51.480;5.706;2023-06-22T12:57:17;20.20;99.90
42715;DHT22;28351;51.480;5.706;2023-06-22T12:59:44;20.10;99.90
42715;DHT22;28351;51.480;5.706;2023-06-22T13:02:10;20.10;99.90
42715;DHT22;28351;51.480;5.706;2023-06-22T13:04:36;20.20;99.90
42715;DHT22;28351;51.480;5.706;2023-06-22T13:07:01;20.30;99.90
42715;DHT22;28351;51.480;5.706;2023-06-22T13:09:27;20.40;99.90
42715;DHT22;28351;51.480;5.706;2023-06-22T13:11:53;20.30;99.90
42715;DHT22;28351;51.480;5.706;2023-06-22T13:14:19;20.30;99.90
42715;DHT22;28351;51.480;5.706;2023-06-22T13:16:44;20.30;99.90
42715;DHT22;28351;51.480;5.706;2023-06-22T13:19:11;20.30;99.90
42715;DHT22;28351;51.480;5.706;2023-06-22T13:21:38;20.20;99.90
42715;DHT22;28351;51.480;5.706;2023-06-22T13:24:04;20.20;99.90
42715;DHT22;28351;51.480;5.706;2023-06-22T13:26:31;20.20;99.90
42715;DHT22;28351;51.480;5.706;2023-06-22T13:28:57;20.20;99.90
42715;DHT22;28351;51.480;5.706;2023-06-22T13:31:22;20.20;99.90
42715;DHT22;28351;51.480;5.706;2023-06-22T13:33:49;20.20;99.90
42715;DHT22;28351;51.480;5.706;2023-06-22T13:36:17;20.20;99.90
42715;DHT22;28351;51.480;5.706;2023-06-22T13:38:43;20.10;99.90
42715;DHT22;28351;51.480;5.706;2023-06-22T13:41:09;20.00;99.90
42715;DHT22;28351;51.480;5.706;2023-06-22T13:43:34;20.00;99.90
42715;DHT22;28351;51.480;5.706;2023-06-22T13:46:00;20.00;99.90
42715;DHT22;28351;51.480;5.706;2023-06-22T13:48:26;20.10;99.90
42715;DHT22;28351;51.480;5.706;2023-06-22T13:50:53;20.10;99.90
42715;DHT22;28351;51.480;5.706;2023-06-22T13:53:19;20.00;99.90
42715;DHT22;28351;51.480;5.706;2023-06-22T13:55:45;19.90;99.90
42715;DHT22;28351;51.480;5.706;2023-06-22T13:58:12;19.80;99.90
42715;DHT22;28351;51.480;5.706;2023-06-22T14:00:37;19.60;99.90
42715;DHT22;28351;51.480;5.706;2023-06-22T14:03:10;19.60;99.90
42715;DHT22;28351;51.480;5.706;2023-06-22T14:05:36;19.60;99.90
42715;DHT22;28351;51.480;5.706;2023-06-22T14:08:01;19.50;99.90
42715;DHT22;28351;51.480;5.706;2023-06-22T14:10:27;19.40;99.90
42715;DHT22;28351;51.480;5.706;2023-06-22T14:12:52;19.40;99.90
42715;DHT22;28351;51.480;5.706;2023-06-22T14:15:19;19.30;99.90
42715;DHT22;28351;51.480;5.706;2023-06-22T14:17:44;19.30;99.90
42715;DHT22;28351;51.480;5.706;2023-06-22T14:20:10;19.30;99.90
42715;DHT22;28351;51.480;5.706;2023-06-22T14:22:36;19.10;99.90
42715;DHT22;28351;51.480;5.706;2023-06-22T14:25:02;19.10;99.90
42715;DHT22;28351;51.480;5.706;2023-06-22T14:27:27;19.10;99.90
42715;DHT22;28351;51.480;5.706;2023-06-22T14:29:53;19.00;99.90
42715;DHT22;28351;51.480;5.706;2023-06-22T14:32:21;19.00;99.90
42715;DHT22;28351;51.480;5.706;2023-06-22T14:34:47;19.00;99.90
42715;DHT22;28351;51.480;5.706;2023-06-22T14:37:15;18.90;99.90
42715;DHT22;28351;51.480;5.706;2023-06-22T14:39:41;18.80;99.90
42715;DHT22;28351;51.480;5.706;2023-06-22T14:42:06;18.80;99.90
42715;DHT22;28351;51.480;5.706;2023-06-22T14:44:32;18.70;99.90
42715;DHT22;28351;51.480;5.706;2023-06-22T14:46:58;18.70;99.90
42715;DHT22;28351;51.480;5.706;2023-06-22T14:49:24;18.70;99.90
42715;DHT22;28351;51.480;5.706;2023-06-22T14:52:21;18.60;99.90
42715;DHT22;28351;51.480;5.706;2023-06-22T14:54:47;18.60;99.90
42715;DHT22;28351;51.480;5.706;2023-06-22T14:57:13;18.50;99.90
42715;DHT22;28351;51.480;5.706;2023-06-22T14:59:43;18.50;99.90
42715;DHT22;28351;51.480;5.706;2023-06-22T15:02:08;18.40;99.90
42715;DHT22;28351;51.480;5.706;2023-06-22T15:04:34;18.50;99.90
42715;DHT22;28351;51.480;5.706;2023-06-22T15:07:00;18.40;99.90
42715;DHT22;28351;51.480;5.706;2023-06-22T15:09:26;18.40;99.90
42715;DHT22;28351;51.480;5.706;2023-06-22T15:11:52;18.40;99.90
42715;DHT22;28351;51.480;5.706;2023-06-22T15:14:18;18.30;99.90
42715;DHT22;28351;51.480;5.706;2023-06-22T15:16:43;18.30;99.90
42715;DHT22;28351;51.480;5.706;2023-06-22T15:19:09;18.30;99.90
42715;DHT22;28351;51.480;5.706;2023-06-22T15:21:35;18.40;99.90
42715;DHT22;28351;51.480;5.706;2023-06-22T15:24:00;18.30;99.90
42715;DHT22;28351;51.480;5.706;2023-06-22T15:26:26;18.30;99.90
42715;DHT22;28351;51.480;5.706;2023-06-22T15:28:51;18.30;99.90
42715;DHT22;28351;51.480;5.706;2023-06-22T15:31:17;18.30;99.90
42715;DHT22;28351;51.480;5.706;2023-06-22T15:33:43;18.40;99.90
42715;DHT22;28351;51.480;5.706;2023-06-22T15:36:08;18.30;99.90
42715;DHT22;28351;51.480;5.706;2023-06-22T15:38:34;18.40;99.90
42715;DHT22;28351;51.480;5.706;2023-06-22T15:41:00;18.40;99.90